Time;durP1;ratioP1;P1;durP2;ratioP2;P2;SDS_P1;SDS_P2;PMS_P1;PMS_P2;Temp;Humidity;BMP_temperature;BMP_pressure;BME280_temperature;BME280_humidity;BME280_pressure;Samples;Min_cycle;Max_cycle;Signal;HPM_P1;HPM_P2
2022/01/19 00:00:32;;;;;;;31.75;14.82;;;;;;;;;;5033044;28;20032;-71
2022/01/19 00:02:58;;;;;;;24.00;12.18;;;;;;;;;;5035461;28;20029;-71
2022/01/19 00:05:24;;;;;;;39.35;18.80;;;;;;;;;;5035124;28;20033;-69
2022/01/19 00:07:50;;;;;;;38.53;15.98;;;;;;;;;;5036858;28;20075;-70
2022/01/19 00:10:20;;;;;;;32.67;16.40;;;;;;;;;;5035533;28;20029;-70
2022/01/19 00:12:46;;;;;;;28.15;14.85;;;;;;;;;;5035109;28;20473;-69
2022/01/19 00:15:13;;;;;;;37.03;17.88;;;;;;;;;;5038749;28;20037;-66
2022/01/19 00:17:39;;;;;;;32.58;15.88;;;;;;;;;;5035150;28;20030;-65
2022/01/19 00:20:07;;;;;;;28.92;13.63;;;;;;;;;;5034709;28;20064;-66
2022/01/19 00:22:33;;;;;;;27.70;12.77;;;;;;;;;;5034865;28;20117;-71
2022/01/19 00:24:59;;;;;;;28.23;14.07;;;;;;;;;;5035312;28;20176;-66
2022/01/19 00:27:24;;;;;;;26.95;12.52;;;;;;;;;;5036195;28;20033;-65
2022/01/19 00:29:51;;;;;;;30.60;14.98;;;;;;;;;;5025285;28;20403;-66
2022/01/19 00:32:17;;;;;;;26.25;13.77;;;;;;;;;;5014963;28;20097;-65
2022/01/19 00:34:42;;;;;;;31.05;14.82;;;;;;;;;;5013575;28;20181;-65
2022/01/19 00:37:08;;;;;;;29.17;14.88;;;;;;;;;;5013544;28;20037;-66
2022/01/19 00:39:34;;;;;;;29.27;14.20;;;;;;;;;;5013935;28;20033;-67
2022/01/19 00:42:00;;;;;;;26.70;13.73;;;;;;;;;;5014448;28;20045;-67
2022/01/19 00:44:26;;;;;;;29.52;13.60;;;;;;;;;;5013459;28;20409;-66
2022/01/19 00:46:52;;;;;;;26.02;12.30;;;;;;;;;;5021361;28;20459;-66
2022/01/19 00:49:18;;;;;;;27.80;12.77;;;;;;;;;;5013867;28;20074;-65
2022/01/19 00:51:44;;;;;;;25.63;12.40;;;;;;;;;;5032952;28;20086;-66
2022/01/19 00:54:09;;;;;;;20.67;10.75;;;;;;;;;;5032991;28;20500;-65
2022/01/19 00:56:36;;;;;;;23.80;11.27;;;;;;;;;;5032877;28;20026;-67
2022/01/19 00:59:01;;;;;;;21.45;10.40;;;;;;;;;;5032929;28;20117;-64
2022/01/19 01:01:27;;;;;;;14.60;7.97;;;;;;;;;;5036414;28;20132;-66
2022/01/19 01:03:53;;;;;;;18.08;7.85;;;;;;;;;;5033847;28;20480;-66
2022/01/19 01:06:20;;;;;;;14.52;8.20;;;;;;;;;;5034180;28;20032;-68
2022/01/19 01:08:46;;;;;;;17.20;8.27;;;;;;;;;;5033710;28;20033;-66
2022/01/19 01:11:12;;;;;;;15.73;7.53;;;;;;;;;;5032669;28;20032;-65
2022/01/19 01:16:37;;;;;;;;;;;;;;;;;;5034271;28;20053;-69
2022/01/19 01:19:06;;;;;;;12.57;5.88;;;;;;;;;;5032394;28;19920;-66
2022/01/19 01:21:34;;;;;;;11.98;5.40;;;;;;;;;;5032463;28;20511;-66
2022/01/19 01:24:01;;;;;;;8.65;4.50;;;;;;;;;;5033736;28;20067;-68
2022/01/19 01:26:27;;;;;;;8.27;4.05;;;;;;;;;;5032594;28;20485;-75
2022/01/19 01:28:53;;;;;;;8.70;4.15;;;;;;;;;;5033732;28;20033;-72
2022/01/19 01:31:19;;;;;;;9.98;5.43;;;;;;;;;;5032713;28;20444;-67
2022/01/19 01:33:45;;;;;;;10.80;5.53;;;;;;;;;;5026059;28;20527;-66
2022/01/19 01:36:12;;;;;;;10.05;4.88;;;;;;;;;;5029284;28;20034;-70
2022/01/19 01:38:39;;;;;;;13.38;5.40;;;;;;;;;;5028020;28;20459;-68
2022/01/19 01:41:09;;;;;;;11.15;4.90;;;;;;;;;;5012514;28;20148;-67
2022/01/19 01:43:35;;;;;;;8.00;4.20;;;;;;;;;;5029798;28;20040;-68
2022/01/19 01:46:08;;;;;;;11.80;5.65;;;;;;;;;;5013209;28;20022;-66
2022/01/19 01:48:41;;;;;;;13.40;6.57;;;;;;;;;;5014615;28;20493;-69
2022/01/19 01:53:58;;;;;;;13.05;6.60;;;;;;;;;;5012077;28;20136;-68
2022/01/19 01:56:24;;;;;;;15.32;6.22;;;;;;;;;;5029103;28;20080;-67
2022/01/19 01:58:58;;;;;;;14.80;6.63;;;;;;;;;;5029736;28;20041;-66
2022/01/19 02:01:30;;;;;;;13.15;6.38;;;;;;;;;;5014402;28;20172;-66
2022/01/19 02:03:59;;;;;;;11.85;5.78;;;;;;;;;;5029593;28;20405;-65
2022/01/19 02:06:32;;;;;;;18.65;8.25;;;;;;;;;;5014244;28;20079;-65
2022/01/19 02:09:21;;;;;;;17.63;8.00;;;;;;;;;;5013821;28;20395;-65
2022/01/19 02:23:04;;;;;;;11.02;4.50;;;;;;;;;;5051782;28;20053;-68
2022/01/19 02:25:36;;;;;;;7.35;3.83;;;;;;;;;;5068079;28;20044;-68
2022/01/19 02:41:36;;;;;;;6.07;2.53;;;;;;;;;;5050735;28;20102;-66
2022/01/19 02:44:03;;;;;;;6.68;2.40;;;;;;;;;;5052331;28;20025;-68
2022/01/19 02:46:52;;;;;;;5.15;2.20;;;;;;;;;;5052036;28;20036;-67
2022/01/19 02:49:20;;;;;;;5.15;2.40;;;;;;;;;;5050285;28;20391;-66
2022/01/19 02:51:49;;;;;;;4.47;2.30;;;;;;;;;;5051604;28;20033;-65
2022/01/19 02:54:21;;;;;;;9.32;1.95;;;;;;;;;;5050598;28;20512;-67
2022/01/19 02:56:51;;;;;;;9.88;2.50;;;;;;;;;;5051530;28;20102;-66
2022/01/19 03:00:01;;;;;;;3.50;1.75;;;;;;;;;;5050524;28;20041;-65
2022/01/19 03:10:18;;;;;;;6.05;2.53;;;;;;;;;;5050394;28;20037;-67
2022/01/19 03:12:43;;;;;;;5.85;2.42;;;;;;;;;;5050273;28;20028;-65
2022/01/19 03:15:11;;;;;;;5.50;2.05;;;;;;;;;;5050304;28;20039;-64
2022/01/19 03:17:37;;;;;;;5.25;2.28;;;;;;;;;;5050299;28;20032;-65
2022/01/19 03:20:05;;;;;;;5.57;2.97;;;;;;;;;;5050530;28;20458;-65
2022/01/19 03:22:46;;;;;;;7.78;2.47;;;;;;;;;;5051878;28;20029;-65
2022/01/19 03:25:13;;;;;;;6.60;2.28;;;;;;;;;;5050607;28;20158;-64
2022/01/19 03:27:40;;;;;;;6.43;2.47;;;;;;;;;;5050386;28;20056;-70
2022/01/19 03:30:08;;;;;;;7.20;2.10;;;;;;;;;;5047387;28;20041;-72
2022/01/19 03:32:34;;;;;;;5.25;1.92;;;;;;;;;;5031960;28;20400;-70
2022/01/19 03:35:01;;;;;;;6.57;2.35;;;;;;;;;;5041614;28;20057;-70
2022/01/19 03:37:27;;;;;;;4.57;1.80;;;;;;;;;;5010542;28;20045;-69
2022/01/19 03:39:53;;;;;;;6.65;2.67;;;;;;;;;;5012219;28;20481;-67
2022/01/19 03:42:19;;;;;;;7.00;2.28;;;;;;;;;;5012133;28;20033;-70
2022/01/19 03:44:45;;;;;;;4.55;2.38;;;;;;;;;;5011781;28;20037;-75
2022/01/19 03:47:11;;;;;;;5.80;2.08;;;;;;;;;;5010530;28;20420;-71
2022/01/19 03:49:36;;;;;;;6.50;2.20;;;;;;;;;;5012062;28;20034;-66
2022/01/19 03:52:05;;;;;;;6.30;2.25;;;;;;;;;;5012043;28;20132;-66
2022/01/19 03:54:36;;;;;;;4.15;2.35;;;;;;;;;;5010067;28;20044;-65
2022/01/19 03:57:03;;;;;;;4.22;2.30;;;;;;;;;;5010290;28;20053;-65
2022/01/19 03:59:30;;;;;;;7.55;2.65;;;;;;;;;;5019534;28;20497;-65
2022/01/19 04:01:58;;;;;;;10.10;2.65;;;;;;;;;;5028816;28;20036;-66
2022/01/19 04:09:19;;;;;;;7.22;2.45;;;;;;;;;;5047506;28;20017;-65
2022/01/19 04:11:45;;;;;;;6.53;2.15;;;;;;;;;;5031005;28;20116;-66
2022/01/19 04:14:24;;;;;;;5.88;2.67;;;;;;;;;;5030758;28;20132;-66
2022/01/19 04:16:55;;;;;;;11.73;3.70;;;;;;;;;;5023204;28;20044;-65
2022/01/19 04:19:26;;;;;;;12.02;3.70;;;;;;;;;;5025900;28;20029;-65
2022/01/19 04:22:17;;;;;;;13.05;4.78;;;;;;;;;;5051167;28;20034;-65
2022/01/19 04:24:45;;;;;;;19.20;4.32;;;;;;;;;;5030484;28;20040;-65
2022/01/19 04:30:11;;;;;;;11.90;4.57;;;;;;;;;;5022029;28;20025;-65
2022/01/19 04:35:26;;;;;;;10.50;3.92;;;;;;;;;;5014175;28;20045;-66
2022/01/19 05:07:32;;;;;;;20.20;5.90;;;;;;;;;;5013765;28;20034;-70
2022/01/19 05:15:11;;;;;;;24.33;6.90;;;;;;;;;;5026389;28;20025;-71
2022/01/19 05:17:38;;;;;;;28.40;7.10;;;;;;;;;;5033352;28;20087;-70
2022/01/19 05:20:10;;;;;;;21.42;7.30;;;;;;;;;;5049776;28;20088;-70
2022/01/19 05:22:36;;;;;;;25.98;8.30;;;;;;;;;;5049750;28;20034;-69
2022/01/19 05:25:09;;;;;;;17.92;7.20;;;;;;;;;;5031373;28;20082;-70
2022/01/19 05:28:11;;;;;;;14.98;6.00;;;;;;;;;;5013690;28;20120;-72
2022/01/19 05:30:37;;;;;;;14.60;6.50;;;;;;;;;;5013116;28;20038;-77
2022/01/19 05:33:03;;;;;;;23.67;8.02;;;;;;;;;;5012878;28;20168;-73
2022/01/19 05:35:30;;;;;;;26.08;7.78;;;;;;;;;;5029519;28;20046;-71
2022/01/19 05:38:22;;;;;;;24.85;7.97;;;;;;;;;;5006445;28;20037;-69
2022/01/19 05:41:12;;;;;;;15.68;6.82;;;;;;;;;;5012690;28;20042;-75
2022/01/19 05:43:39;;;;;;;14.10;4.70;;;;;;;;;;5012107;28;20048;-70
2022/01/19 05:46:05;;;;;;;15.80;5.72;;;;;;;;;;5027307;28;20040;-74
2022/01/19 05:48:34;;;;;;;8.93;4.78;;;;;;;;;;5047889;28;20053;-71
2022/01/19 05:51:00;;;;;;;9.10;5.05;;;;;;;;;;5030059;28;20030;-70
2022/01/19 05:53:29;;;;;;;12.07;5.53;;;;;;;;;;5030898;28;20041;-70
2022/01/19 05:55:55;;;;;;;10.48;5.22;;;;;;;;;;5031711;28;20488;-71
2022/01/19 05:58:21;;;;;;;9.48;4.95;;;;;;;;;;5029780;28;20052;-69
2022/01/19 06:00:51;;;;;;;22.50;7.28;;;;;;;;;;5029983;28;20021;-72
2022/01/19 06:03:18;;;;;;;13.43;5.13;;;;;;;;;;5028874;28;20082;-70
2022/01/19 06:06:13;;;;;;;11.35;5.88;;;;;;;;;;5030683;28;20475;-73
2022/01/19 06:09:08;;;;;;;30.45;6.65;;;;;;;;;;5031698;28;20481;-73
2022/01/19 06:11:34;;;;;;;18.30;7.85;;;;;;;;;;5029927;28;20038;-74
2022/01/19 06:14:02;;;;;;;22.67;5.82;;;;;;;;;;5047190;28;20033;-70
2022/01/19 06:16:30;;;;;;;11.80;6.07;;;;;;;;;;5029756;28;20098;-70
2022/01/19 06:18:56;;;;;;;17.17;6.30;;;;;;;;;;5030710;28;20499;-70
2022/01/19 06:21:23;;;;;;;12.82;5.63;;;;;;;;;;5031050;28;20040;-72
2022/01/19 06:23:50;;;;;;;15.38;6.10;;;;;;;;;;5021763;28;20029;-71
2022/01/19 06:26:20;;;;;;;25.30;6.20;;;;;;;;;;5031562;28;20404;-70
2022/01/19 06:28:47;;;;;;;15.05;5.85;;;;;;;;;;5031021;28;20041;-74
2022/01/19 06:31:13;;;;;;;21.50;5.60;;;;;;;;;;5031296;28;20043;-71
2022/01/19 06:33:40;;;;;;;9.60;5.60;;;;;;;;;;5031233;28;20409;-74
2022/01/19 06:36:07;;;;;;;14.32;6.80;;;;;;;;;;5031581;28;20151;-75
2022/01/19 06:38:37;;;;;;;18.60;6.40;;;;;;;;;;5030879;28;20049;-75
2022/01/19 06:41:08;;;;;;;13.43;5.90;;;;;;;;;;5031539;28;20033;-78
2022/01/19 06:43:36;;;;;;;12.43;5.45;;;;;;;;;;5030807;28;20041;-71
2022/01/19 06:46:03;;;;;;;12.18;5.10;;;;;;;;;;5047150;28;20025;-73
2022/01/19 06:48:29;;;;;;;11.73;5.43;;;;;;;;;;5031414;28;20396;-73
2022/01/19 06:50:57;;;;;;;18.35;7.40;;;;;;;;;;5047943;28;20025;-71
2022/01/19 06:53:33;;;;;;;22.70;12.43;;;;;;;;;;5030815;28;20037;-73
2022/01/19 06:56:11;;;;;;;13.93;7.13;;;;;;;;;;5030827;28;20037;-72
2022/01/19 06:58:37;;;;;;;11.95;6.03;;;;;;;;;;5031289;28;20554;-71
2022/01/19 07:01:21;;;;;;;18.42;8.90;;;;;;;;;;5032320;28;20091;-78
2022/01/19 07:04:05;;;;;;;12.75;6.80;;;;;;;;;;5032973;28;20051;-77
2022/01/19 07:06:38;;;;;;;16.20;7.32;;;;;;;;;;5031388;28;20046;-72
2022/01/19 07:09:17;;;;;;;13.00;6.45;;;;;;;;;;5032071;28;20542;-75
2022/01/19 07:11:53;;;;;;;10.65;5.95;;;;;;;;;;5030995;28;20041;-77
2022/01/19 07:14:19;;;;;;;32.92;11.57;;;;;;;;;;5030625;28;20099;-74
2022/01/19 07:16:47;;;;;;;15.93;6.72;;;;;;;;;;5030791;28;20028;-75
2022/01/19 07:19:14;;;;;;;13.85;6.70;;;;;;;;;;5030661;28;20029;-73
2022/01/19 07:21:42;;;;;;;15.40;7.45;;;;;;;;;;5030364;28;20029;-75
2022/01/19 07:24:08;;;;;;;13.00;6.78;;;;;;;;;;5030918;28;20083;-73
2022/01/19 07:26:34;;;;;;;17.73;7.55;;;;;;;;;;5030577;28;20025;-79
2022/01/19 07:29:02;;;;;;;23.25;8.32;;;;;;;;;;5031151;28;20034;-72
2022/01/19 07:31:29;;;;;;;20.17;10.10;;;;;;;;;;5031134;28;20022;-74
2022/01/19 07:34:02;;;;;;;21.35;8.55;;;;;;;;;;5030005;28;20132;-75
2022/01/19 07:36:29;;;;;;;26.35;9.70;;;;;;;;;;5031764;28;20030;-74
2022/01/19 07:38:56;;;;;;;23.92;9.93;;;;;;;;;;5032399;28;20022;-73
2022/01/19 07:41:22;;;;;;;21.67;9.13;;;;;;;;;;5030822;28;20056;-78
2022/01/19 07:43:51;;;;;;;17.45;8.90;;;;;;;;;;5030717;28;20060;-72
2022/01/19 07:46:36;;;;;;;17.33;8.07;;;;;;;;;;5032102;28;20068;-75
2022/01/19 07:49:28;;;;;;;19.20;9.30;;;;;;;;;;5023573;28;20481;-76
2022/01/19 07:52:12;;;;;;;21.08;8.75;;;;;;;;;;5035927;28;20128;-73
2022/01/19 07:55:04;;;;;;;14.50;7.78;;;;;;;;;;5032255;28;20095;-73
2022/01/19 07:58:01;;;;;;;12.15;6.43;;;;;;;;;;5035001;28;20063;-73
2022/01/19 08:00:35;;;;;;;13.40;5.90;;;;;;;;;;5022812;28;20026;-72
2022/01/19 08:03:21;;;;;;;11.90;6.00;;;;;;;;;;5035011;28;20055;-72
2022/01/19 08:06:09;;;;;;;13.30;5.45;;;;;;;;;;5034087;28;20071;-71
2022/01/19 08:08:37;;;;;;;13.45;6.15;;;;;;;;;;5034236;28;20033;-72
2022/01/19 08:11:03;;;;;;;16.60;6.47;;;;;;;;;;5033853;28;20032;-74
2022/01/19 08:13:32;;;;;;;16.13;7.40;;;;;;;;;;5033621;28;20026;-70
2022/01/19 08:16:07;;;;;;;13.55;6.53;;;;;;;;;;5035541;28;20475;-74
2022/01/19 08:18:35;;;;;;;14.43;6.38;;;;;;;;;;5050499;28;20037;-71
2022/01/19 08:21:01;;;;;;;15.25;6.82;;;;;;;;;;5034717;28;20095;-71
2022/01/19 08:23:35;;;;;;;15.65;6.63;;;;;;;;;;5033741;28;20486;-73
2022/01/19 08:26:01;;;;;;;11.18;5.78;;;;;;;;;;5033908;28;20029;-75
2022/01/19 08:28:28;;;;;;;10.15;4.88;;;;;;;;;;5033952;28;20029;-73
2022/01/19 08:30:55;;;;;;;11.60;4.78;;;;;;;;;;5033975;28;20037;-72
2022/01/19 08:33:40;;;;;;;9.57;4.70;;;;;;;;;;5035282;28;20102;-73
2022/01/19 08:36:07;;;;;;;8.25;4.75;;;;;;;;;;5033716;28;20400;-76
2022/01/19 08:38:51;;;;;;;9.93;5.07;;;;;;;;;;5034908;28;20079;-73
2022/01/19 08:41:29;;;;;;;11.60;4.47;;;;;;;;;;5029616;28;20465;-74
2022/01/19 08:43:56;;;;;;;12.07;4.38;;;;;;;;;;5016263;28;20046;-72
2022/01/19 08:46:22;;;;;;;9.82;4.07;;;;;;;;;;5035341;28;20034;-74
2022/01/19 08:49:12;;;;;;;10.48;4.50;;;;;;;;;;5031362;28;20037;-73
2022/01/19 08:52:07;;;;;;;10.38;4.28;;;;;;;;;;5033814;28;20045;-71
2022/01/19 08:54:45;;;;;;;10.30;4.90;;;;;;;;;;5033238;28;20045;-77
2022/01/19 08:57:11;;;;;;;9.98;3.95;;;;;;;;;;5033338;28;20453;-73
2022/01/19 08:59:37;;;;;;;6.35;3.90;;;;;;;;;;5034466;28;20033;-74
2022/01/19 09:02:04;;;;;;;6.40;3.72;;;;;;;;;;5034096;28;20480;-73
2022/01/19 09:04:30;;;;;;;6.50;3.65;;;;;;;;;;5033889;28;20017;-71
2022/01/19 09:06:58;;;;;;;10.40;3.97;;;;;;;;;;5034141;28;20400;-71
2022/01/19 09:09:23;;;;;;;8.13;4.03;;;;;;;;;;5049669;28;20029;-75
2022/01/19 09:11:49;;;;;;;7.75;3.80;;;;;;;;;;5034637;28;20400;-75
2022/01/19 09:14:15;;;;;;;7.28;4.18;;;;;;;;;;5033855;28;20029;-72
2022/01/19 09:16:41;;;;;;;7.78;4.00;;;;;;;;;;5033881;28;20512;-75
2022/01/19 09:19:07;;;;;;;11.77;4.20;;;;;;;;;;5033817;28;20049;-71
2022/01/19 09:21:34;;;;;;;12.15;3.97;;;;;;;;;;5032812;28;20030;-71
2022/01/19 09:24:00;;;;;;;14.07;4.70;;;;;;;;;;5014962;28;20033;-71
2022/01/19 09:26:28;;;;;;;8.75;3.85;;;;;;;;;;5033927;28;20136;-74
2022/01/19 09:28:54;;;;;;;9.85;4.18;;;;;;;;;;5034152;28;20033;-73
2022/01/19 09:31:20;;;;;;;10.73;4.70;;;;;;;;;;5034365;28;20033;-74
2022/01/19 09:33:54;;;;;;;6.88;3.58;;;;;;;;;;5033695;28;20052;-72
2022/01/19 09:36:35;;;;;;;8.70;4.28;;;;;;;;;;5034319;28;20037;-73
2022/01/19 09:39:02;;;;;;;7.68;4.43;;;;;;;;;;5034360;28;20053;-74
2022/01/19 09:41:29;;;;;;;12.20;4.80;;;;;;;;;;5049031;28;20025;-74
2022/01/19 09:43:55;;;;;;;11.35;4.45;;;;;;;;;;5033765;28;20512;-74
2022/01/19 09:46:22;;;;;;;10.40;4.50;;;;;;;;;;5033825;28;20022;-72
2022/01/19 09:48:48;;;;;;;8.32;4.40;;;;;;;;;;5033491;28;20029;-74
2022/01/19 09:51:14;;;;;;;11.68;4.18;;;;;;;;;;5033732;28;20029;-76
2022/01/19 09:53:41;;;;;;;10.30;4.53;;;;;;;;;;5033785;28;20034;-74
2022/01/19 09:56:08;;;;;;;9.57;4.55;;;;;;;;;;5034196;28;20358;-73
2022/01/19 09:58:33;;;;;;;10.15;4.55;;;;;;;;;;5032270;28;20476;-77
2022/01/19 10:00:59;;;;;;;14.50;5.47;;;;;;;;;;5033941;28;20161;-73
2022/01/19 10:03:31;;;;;;;10.65;3.85;;;;;;;;;;5031920;28;20038;-74
2022/01/19 10:06:05;;;;;;;10.40;4.05;;;;;;;;;;5033273;28;20053;-72
2022/01/19 10:08:46;;;;;;;11.05;3.53;;;;;;;;;;5033546;28;20033;-73
2022/01/19 10:19:41;;;;;;;11.57;3.20;;;;;;;;;;5033215;28;20033;-74
2022/01/19 10:22:17;;;;;;;9.43;3.33;;;;;;;;;;5031590;28;20060;-74
2022/01/19 10:24:50;;;;;;;7.55;3.40;;;;;;;;;;5033130;28;20045;-76
2022/01/19 10:27:36;;;;;;;4.82;2.50;;;;;;;;;;5033121;28;20045;-72
2022/01/19 10:30:04;;;;;;;8.93;2.85;;;;;;;;;;5032960;28;20095;-72
2022/01/19 10:32:33;;;;;;;7.85;2.95;;;;;;;;;;5019892;28;20030;-74
2022/01/19 10:35:32;;;;;;;8.43;3.22;;;;;;;;;;5016819;28;20095;-70
2022/01/19 10:38:11;;;;;;;6.35;3.00;;;;;;;;;;5032517;28;20045;-72
2022/01/19 10:40:39;;;;;;;6.22;3.13;;;;;;;;;;5022397;28;20034;-72
2022/01/19 10:43:34;;;;;;;8.27;3.40;;;;;;;;;;5029480;28;20030;-71
2022/01/19 10:46:22;;;;;;;8.68;4.10;;;;;;;;;;5028336;28;20057;-74
2022/01/19 10:48:47;;;;;;;12.95;4.07;;;;;;;;;;5011864;28;20436;-70
2022/01/19 10:51:20;;;;;;;11.90;4.10;;;;;;;;;;5012793;28;20088;-78
2022/01/19 10:54:05;;;;;;;22.77;3.90;;;;;;;;;;5012419;28;20425;-81
2022/01/19 10:56:32;;;;;;;7.30;3.45;;;;;;;;;;5010803;28;20050;-71
2022/01/19 10:59:07;;;;;;;8.93;3.50;;;;;;;;;;5028336;28;20380;-70
2022/01/19 11:01:56;;;;;;;6.07;3.38;;;;;;;;;;5032163;28;20037;-71
2022/01/19 11:04:31;;;;;;;8.15;3.50;;;;;;;;;;5031431;28;20116;-72
2022/01/19 11:07:05;;;;;;;9.40;3.30;;;;;;;;;;5029078;28;20115;-79
2022/01/19 11:09:34;;;;;;;8.00;3.72;;;;;;;;;;5030287;28;20041;-72
2022/01/19 11:12:06;;;;;;;17.40;6.68;;;;;;;;;;5032155;28;20071;-70
2022/01/19 11:14:35;;;;;;;9.60;4.03;;;;;;;;;;5031758;28;20029;-73
2022/01/19 11:17:02;;;;;;;8.82;3.22;;;;;;;;;;5031935;28;20041;-70
2022/01/19 11:19:28;;;;;;;5.00;2.88;;;;;;;;;;5019765;28;20489;-71
2022/01/19 11:21:57;;;;;;;7.82;3.30;;;;;;;;;;5010460;28;20056;-71
2022/01/19 11:24:37;;;;;;;7.55;3.00;;;;;;;;;;5011747;28;20033;-73
2022/01/19 11:27:04;;;;;;;8.13;3.47;;;;;;;;;;5016543;28;20381;-78
2022/01/19 11:29:30;;;;;;;6.78;3.25;;;;;;;;;;5010631;28;20030;-72
2022/01/19 11:32:12;;;;;;;7.50;3.15;;;;;;;;;;5010105;28;20448;-71
2022/01/19 11:34:46;;;;;;;9.50;4.22;;;;;;;;;;5010476;28;20141;-73
2022/01/19 11:37:15;;;;;;;8.88;3.00;;;;;;;;;;5011867;28;20038;-74
2022/01/19 11:40:02;;;;;;;13.00;5.70;;;;;;;;;;5024971;28;20481;-73
2022/01/19 11:42:30;;;;;;;12.95;4.32;;;;;;;;;;5023477;28;20076;-76
2022/01/19 11:44:56;;;;;;;9.38;3.85;;;;;;;;;;5021911;28;20054;-71
2022/01/19 11:47:29;;;;;;;7.72;4.18;;;;;;;;;;5024477;28;20072;-72
2022/01/19 11:50:06;;;;;;;8.15;4.18;;;;;;;;;;5023978;28;20076;-75
2022/01/19 11:52:33;;;;;;;4.68;2.05;;;;;;;;;;5014159;28;20034;-70
2022/01/19 11:55:14;;;;;;;4.40;2.10;;;;;;;;;;5022184;28;20053;-75
2022/01/19 11:57:41;;;;;;;6.13;2.53;;;;;;;;;;5026277;28;20040;-71
2022/01/19 12:00:15;;;;;;;7.55;2.40;;;;;;;;;;5030874;28;20540;-73
2022/01/19 12:02:45;;;;;;;7.88;2.78;;;;;;;;;;5031389;28;20076;-72
2022/01/19 12:05:11;;;;;;;11.50;3.45;;;;;;;;;;5033026;28;20029;-69
2022/01/19 12:08:01;;;;;;;7.57;3.30;;;;;;;;;;5033435;28;20036;-73
2022/01/19 12:10:38;;;;;;;8.70;3.00;;;;;;;;;;5031544;28;20053;-70
2022/01/19 12:16:21;;;;;;;7.45;2.75;;;;;;;;;;5031041;28;20396;-72
2022/01/19 12:18:56;;;;;;;6.45;2.33;;;;;;;;;;5031543;28;20040;-70
2022/01/19 12:21:21;;;;;;;5.68;1.98;;;;;;;;;;5031663;28;20048;-73
2022/01/19 12:23:49;;;;;;;4.97;2.30;;;;;;;;;;5032025;28;20026;-77
2022/01/19 12:26:15;;;;;;;6.78;2.80;;;;;;;;;;5031819;28;20040;-72
2022/01/19 12:28:44;;;;;;;7.57;2.50;;;;;;;;;;5031459;28;20022;-73
2022/01/19 12:31:26;;;;;;;6.63;2.15;;;;;;;;;;5032428;28;20064;-71
2022/01/19 12:36:48;;;;;;;4.55;2.00;;;;;;;;;;5032658;28;20103;-73
2022/01/19 12:39:25;;;;;;;9.05;2.60;;;;;;;;;;5034636;28;20434;-70
2022/01/19 12:42:04;;;;;;;6.43;2.40;;;;;;;;;;5035008;28;20033;-76
2022/01/19 12:44:50;;;;;;;8.77;3.08;;;;;;;;;;5015121;28;20034;-72
2022/01/19 12:47:25;;;;;;;7.90;3.00;;;;;;;;;;5027196;28;20033;-75
2022/01/19 12:49:57;;;;;;;5.55;3.53;;;;;;;;;;5034320;28;20124;-71
2022/01/19 12:52:26;;;;;;;6.78;2.83;;;;;;;;;;5034398;28;20025;-72
2022/01/19 12:54:53;;;;;;;8.23;2.50;;;;;;;;;;5034162;28;20059;-72
2022/01/19 12:57:19;;;;;;;6.63;2.80;;;;;;;;;;5034389;28;20033;-72
2022/01/19 12:59:48;;;;;;;8.88;2.70;;;;;;;;;;5033828;28;20030;-71
2022/01/19 13:02:16;;;;;;;7.03;2.85;;;;;;;;;;5016779;28;20392;-70
2022/01/19 13:04:46;;;;;;;5.63;2.63;;;;;;;;;;5034666;28;20026;-71
2022/01/19 13:07:27;;;;;;;9.75;5.75;;;;;;;;;;5034639;28;20103;-73
2022/01/19 13:10:34;;;;;;;7.22;3.08;;;;;;;;;;5034683;28;20033;-71
2022/01/19 13:13:07;;;;;;;6.45;2.80;;;;;;;;;;5034374;28;20045;-70
2022/01/19 13:15:49;;;;;;;5.22;2.40;;;;;;;;;;5034248;28;20473;-71
2022/01/19 13:18:32;;;;;;;5.55;2.60;;;;;;;;;;5034429;28;20041;-71
2022/01/19 13:21:05;;;;;;;6.80;3.03;;;;;;;;;;5034385;28;20441;-73
2022/01/19 13:23:37;;;;;;;6.03;3.20;;;;;;;;;;5034533;28;20044;-73
2022/01/19 13:26:07;;;;;;;8.63;3.10;;;;;;;;;;5049922;28;20037;-71
2022/01/19 13:28:35;;;;;;;20.83;3.35;;;;;;;;;;5033868;28;20117;-80
2022/01/19 13:31:10;;;;;;;5.07;2.13;;;;;;;;;;5034273;28;20045;-73
2022/01/19 13:33:39;;;;;;;6.38;3.08;;;;;;;;;;5032607;28;20041;-78
2022/01/19 13:36:05;;;;;;;5.97;2.83;;;;;;;;;;5034198;28;20525;-76
2022/01/19 13:38:32;;;;;;;8.45;3.30;;;;;;;;;;5049212;28;20170;-71
2022/01/19 13:41:05;;;;;;;7.30;2.67;;;;;;;;;;5033946;28;20034;-72
2022/01/19 13:43:35;;;;;;;7.10;2.60;;;;;;;;;;5034498;28;20033;-73
2022/01/19 13:46:13;;;;;;;7.05;2.92;;;;;;;;;;5034014;28;20794;-73
2022/01/19 13:48:43;;;;;;;7.68;2.50;;;;;;;;;;5032367;28;20053;-75
2022/01/19 13:51:11;;;;;;;6.32;2.70;;;;;;;;;;5033821;28;20438;-73
2022/01/19 13:53:41;;;;;;;7.00;3.88;;;;;;;;;;5033308;28;20113;-73
2022/01/19 13:56:17;;;;;;;9.13;3.92;;;;;;;;;;5033386;28;20195;-75
2022/01/19 13:58:47;;;;;;;18.40;4.10;;;;;;;;;;5033513;28;20495;-74
2022/01/19 14:01:32;;;;;;;7.72;2.67;;;;;;;;;;5033513;28;20042;-72
2022/01/19 14:04:04;;;;;;;6.47;3.70;;;;;;;;;;5033315;28;20041;-74
2022/01/19 14:06:34;;;;;;;5.30;2.90;;;;;;;;;;5032704;28;20033;-73
2022/01/19 14:09:23;;;;;;;5.20;2.60;;;;;;;;;;5033396;28;20025;-75
2022/01/19 14:12:06;;;;;;;3.97;2.22;;;;;;;;;;5033657;28;20049;-74
2022/01/19 14:14:36;;;;;;;9.45;3.15;;;;;;;;;;5033166;28;20041;-74
2022/01/19 14:17:05;;;;;;;4.82;2.00;;;;;;;;;;5033322;28;20056;-77
2022/01/19 14:19:32;;;;;;;9.15;2.20;;;;;;;;;;5032896;28;20037;-78
2022/01/19 14:22:20;;;;;;;5.38;2.17;;;;;;;;;;5033383;28;20037;-79
2022/01/19 14:24:51;;;;;;;7.18;2.85;;;;;;;;;;5033296;28;20473;-77
2022/01/19 14:27:23;;;;;;;7.05;2.63;;;;;;;;;;5033397;28;20034;-81
2022/01/19 14:30:03;;;;;;;8.55;2.33;;;;;;;;;;5033314;28;20029;-73
2022/01/19 14:32:33;;;;;;;6.13;2.35;;;;;;;;;;5032936;28;20520;-79
2022/01/19 14:34:59;;;;;;;6.97;2.80;;;;;;;;;;5033083;28;20050;-78
2022/01/19 14:37:25;;;;;;;5.18;2.50;;;;;;;;;;5033155;28;20037;-76
2022/01/19 14:40:02;;;;;;;6.25;2.28;;;;;;;;;;5038456;28;20542;-74
2022/01/19 14:42:36;;;;;;;5.25;2.30;;;;;;;;;;5051247;28;20052;-75
2022/01/19 14:45:26;;;;;;;7.75;2.88;;;;;;;;;;5052200;28;20040;-74
2022/01/19 14:47:54;;;;;;;5.10;2.10;;;;;;;;;;5052762;28;20067;-73
2022/01/19 14:50:34;;;;;;;5.47;2.13;;;;;;;;;;5053098;28;20695;-74
2022/01/19 14:53:00;;;;;;;9.82;3.03;;;;;;;;;;5052460;28;20036;-74
2022/01/19 14:55:29;;;;;;;9.60;3.15;;;;;;;;;;5052677;28;20028;-76
2022/01/19 14:57:57;;;;;;;12.45;3.40;;;;;;;;;;5052941;28;20093;-76
2022/01/19 15:00:25;;;;;;;10.73;3.45;;;;;;;;;;5052258;28;20040;-77
2022/01/19 15:02:58;;;;;;;11.55;3.78;;;;;;;;;;5052910;28;20072;-78
2022/01/19 15:05:35;;;;;;;8.93;4.25;;;;;;;;;;5053042;28;20052;-75
2022/01/19 15:08:02;;;;;;;10.65;3.22;;;;;;;;;;5031265;28;20164;-78
2022/01/19 15:10:30;;;;;;;10.80;3.60;;;;;;;;;;5048504;28;20032;-74
2022/01/19 15:12:56;;;;;;;9.45;3.92;;;;;;;;;;5032879;28;20330;-77
2022/01/19 15:15:26;;;;;;;13.55;3.70;;;;;;;;;;5032338;28;20026;-72
2022/01/19 15:17:53;;;;;;;7.55;2.65;;;;;;;;;;5032602;28;20068;-72
2022/01/19 15:20:20;;;;;;;7.53;3.30;;;;;;;;;;5032547;28;20088;-73
2022/01/19 15:22:46;;;;;;;12.40;4.78;;;;;;;;;;5032187;28;20169;-75
2022/01/19 15:25:12;;;;;;;9.80;3.22;;;;;;;;;;5032055;28;20160;-71
2022/01/19 15:27:38;;;;;;;13.98;3.53;;;;;;;;;;5032488;28;20033;-71
2022/01/19 15:30:07;;;;;;;9.35;3.95;;;;;;;;;;5032599;28;20528;-71
2022/01/19 15:32:32;;;;;;;10.57;4.03;;;;;;;;;;5032576;28;20025;-71
2022/01/19 15:34:58;;;;;;;10.90;4.35;;;;;;;;;;5032017;28;20049;-73
2022/01/19 15:37:24;;;;;;;15.02;5.00;;;;;;;;;;5031829;28;20038;-72
2022/01/19 15:39:54;;;;;;;9.75;3.83;;;;;;;;;;5032303;28;20046;-70
2022/01/19 15:42:22;;;;;;;10.98;4.10;;;;;;;;;;5032312;28;20030;-74
2022/01/19 15:44:49;;;;;;;6.55;4.13;;;;;;;;;;5032129;28;20033;-74
2022/01/19 15:47:18;;;;;;;13.05;5.30;;;;;;;;;;5032289;28;20108;-73
2022/01/19 15:49:46;;;;;;;12.75;4.78;;;;;;;;;;5031819;28;20036;-72
2022/01/19 15:52:12;;;;;;;15.95;5.15;;;;;;;;;;5031502;28;20044;-71
2022/01/19 15:54:38;;;;;;;11.65;5.18;;;;;;;;;;5046817;28;20049;-75
2022/01/19 15:57:04;;;;;;;15.27;5.85;;;;;;;;;;5031642;28;20503;-71
2022/01/19 15:59:30;;;;;;;16.42;7.22;;;;;;;;;;5031769;28;20540;-72
2022/01/19 16:01:56;;;;;;;16.95;8.00;;;;;;;;;;5031943;28;20097;-71
2022/01/19 16:04:22;;;;;;;19.73;7.65;;;;;;;;;;5031445;28;20037;-73
2022/01/19 16:06:48;;;;;;;20.70;7.28;;;;;;;;;;5033991;28;20121;-72
2022/01/19 16:09:15;;;;;;;15.57;6.82;;;;;;;;;;5041905;28;20060;-73
2022/01/19 16:11:42;;;;;;;12.90;4.72;;;;;;;;;;5041324;28;20400;-72
2022/01/19 16:14:08;;;;;;;13.85;6.47;;;;;;;;;;5026994;28;20488;-73
2022/01/19 16:16:34;;;;;;;14.57;7.22;;;;;;;;;;5014891;28;20062;-76
2022/01/19 16:19:00;;;;;;;16.63;6.80;;;;;;;;;;5022737;28;20068;-73
2022/01/19 16:21:27;;;;;;;21.20;9.20;;;;;;;;;;5035504;28;20063;-72
2022/01/19 16:26:41;;;;;;;14.63;8.52;;;;;;;;;;5035386;28;20075;-74
2022/01/19 16:29:08;;;;;;;18.33;9.73;;;;;;;;;;5034850;28;20059;-75
2022/01/19 16:31:34;;;;;;;19.83;10.82;;;;;;;;;;5035229;28;20068;-72
2022/01/19 16:34:00;;;;;;;22.85;12.07;;;;;;;;;;5034307;28;20041;-76
2022/01/19 16:36:26;;;;;;;23.92;11.00;;;;;;;;;;5035067;28;20034;-76
2022/01/19 16:38:52;;;;;;;18.65;11.20;;;;;;;;;;5033779;28;20017;-76